Time;durP1;ratioP1;P1;durP2;ratioP2;P2;SDS_P1;SDS_P2;PMS_P1;PMS_P2;Temp;Humidity;BMP_temperature;BMP_pressure;BME280_temperature;BME280_humidity;BME280_pressure;Samples;Min_cycle;Max_cycle;Signal;HPM_P1;HPM_P2
2023/02/22 00:00:47;;;;;;;;;;;;;;;9.88;70.59;98899.04;107438;1293;22594;-83
2023/02/22 00:03:51;;;;;;;;;;;;;;;9.90;70.81;98903.84;107210;1287;24057;-80
2023/02/22 00:06:41;;;;;;;;;;;;;;;9.88;71.29;98907.54;107572;1293;22941;-78
2023/02/22 00:09:22;;;;;;;;;;;;;;;9.91;71.42;98904.70;107446;1293;22567;-80
2023/02/22 00:12:03;;;;;;;;;;;;;;;9.92;71.47;98906.89;108007;1289;22618;-82
2023/02/22 00:14:41;;;;;;;;;;;;;;;9.96;71.47;98909.24;108601;1292;23739;-80
2023/02/22 00:17:22;;;;;;;;;;;;;;;9.96;71.49;98907.86;108747;1293;22626;-80
2023/02/22 00:19:58;;;;;;;;;;;;;;;9.98;71.55;98910.06;108625;1289;22605;-80
2023/02/22 00:22:32;;;;;;;;;;;;;;;9.97;71.39;98911.80;108146;1294;24017;-79
2023/02/22 00:25:06;;;;;;;;;;;;;;;9.94;71.21;98918.09;107601;1287;22684;-80
2023/02/22 00:27:47;;;;;;;;;;;;;;;9.90;71.53;98919.25;107733;1289;24195;-81
2023/02/22 00:30:29;;;;;;;;;;;;;;;9.89;71.61;98917.04;107306;1293;24199;-80
2023/02/22 00:33:03;;;;;;;;;;;;;;;9.87;71.13;98916.73;107317;1289;23413;-79
2023/02/22 00:35:44;;;;;;;;;;;;;;;9.81;71.24;98916.36;107222;1289;23518;-81
2023/02/22 00:38:23;;;;;;;;;;;;;;;9.76;71.43;98922.56;107517;1292;22464;-80
2023/02/22 00:41:21;;;;;;;;;;;;;;;9.69;71.72;98922.19;108560;1292;22567;-80
2023/02/22 00:43:54;;;;;;;;;;;;;;;9.64;71.49;98921.27;108512;1293;22765;-80
2023/02/22 00:46:31;;;;;;;;;;;;;;;9.56;72.07;98915.08;108732;1290;22673;-80
2023/02/22 00:49:07;;;;;;;;;;;;;;;9.50;72.35;98919.70;108581;1293;23809;-80
2023/02/22 00:51:42;;;;;;;;;;;;;;;9.47;72.40;98914.77;107812;1286;25395;-80
2023/02/22 00:54:17;;;;;;;;;;;;;;;9.42;72.34;98914.37;107130;1292;22525;-81
2023/02/22 00:56:53;;;;;;;;;;;;;;;9.37;73.07;98915.00;107280;1292;23054;-81
2023/02/22 00:59:29;;;;;;;;;;;;;;;9.36;72.59;98911.03;106961;1292;22584;-80
2023/02/22 01:02:02;;;;;;;;;;;;;;;9.32;72.90;98909.39;107328;1293;22550;-81
2023/02/22 01:04:39;;;;;;;;;;;;;;;9.32;73.04;98909.92;106827;1293;22542;-80
2023/02/22 01:07:17;;;;;;;;;;;;;;;9.30;72.89;98908.91;107170;1292;22491;-80
2023/02/22 01:09:48;;;;;;;;;;;;;;;9.29;73.57;98902.38;107299;1287;22615;-81
2023/02/22 01:12:22;;;;;;;;;;;;;;;9.29;73.65;98900.80;107629;1286;23429;-79
2023/02/22 01:14:59;;;;;;;;;;;;;;;9.26;73.79;98898.14;107243;1293;23843;-79
2023/02/22 01:17:34;;;;;;;;;;;;;;;9.24;73.93;98901.10;107656;1286;24900;-80
2023/02/22 01:20:14;;;;;;;;;;;;;;;9.22;73.80;98897.70;107125;1287;22522;-79
2023/02/22 01:22:52;;;;;;;;;;;;;;;9.18;74.23;98893.11;107516;1290;22785;-79
2023/02/22 01:25:24;;;;;;;;;;;;;;;9.14;73.31;98889.38;107600;1293;22597;-82
2023/02/22 01:28:00;;;;;;;;;;;;;;;9.07;73.75;98885.75;107444;1289;22553;-80
2023/02/22 01:30:35;;;;;;;;;;;;;;;9.02;73.47;98885.19;107437;1293;22543;-80
2023/02/22 01:33:11;;;;;;;;;;;;;;;8.92;73.97;98884.36;107317;1293;25615;-80
2023/02/22 01:35:45;;;;;;;;;;;;;;;8.84;73.24;98881.23;107496;1289;22671;-80
2023/02/22 01:38:21;;;;;;;;;;;;;;;8.75;74.55;98881.61;107424;1293;24498;-79
2023/02/22 01:40:57;;;;;;;;;;;;;;;8.68;73.99;98879.31;107417;1294;22533;-79
2023/02/22 01:43:34;;;;;;;;;;;;;;;8.63;73.70;98872.20;107511;1289;22464;-78
2023/02/22 01:46:07;;;;;;;;;;;;;;;8.54;74.01;98868.91;108292;1292;22558;-80
2023/02/22 01:48:51;;;;;;;;;;;;;;;8.47;74.71;98869.92;108450;1294;22471;-80
2023/02/22 01:51:27;;;;;;;;;;;;;;;8.42;74.40;98867.94;108351;1289;22631;-80
2023/02/22 01:54:03;;;;;;;;;;;;;;;8.35;73.81;98863.38;108088;1287;22756;-81
2023/02/22 01:56:41;;;;;;;;;;;;;;;8.33;74.67;98866.54;107615;1293;22534;-80
2023/02/22 01:59:16;;;;;;;;;;;;;;;8.29;74.92;98871.63;107516;1289;22578;-79
2023/02/22 02:01:57;;;;;;;;;;;;;;;8.26;75.05;98864.95;107692;1293;25406;-80
2023/02/22 02:04:34;;;;;;;;;;;;;;;8.26;75.17;98869.45;107418;1292;22568;-79
2023/02/22 02:07:05;;;;;;;;;;;;;;;8.25;75.40;98873.08;107376;1293;22514;-79
2023/02/22 02:09:48;;;;;;;;;;;;;;;8.24;75.55;98870.69;107468;1290;23356;-79
2023/02/22 02:12:28;;;;;;;;;;;;;;;8.22;75.99;98873.48;107410;1290;22471;-81
2023/02/22 02:15:40;;;;;;;;;;;;;;;8.19;76.28;98870.06;107523;1293;23893;-82
2023/02/22 02:18:17;;;;;;;;;;;;;;;8.15;76.06;98872.56;108013;1293;25251;-80
2023/02/22 02:21:21;;;;;;;;;;;;;;;8.10;76.46;98872.14;107732;1293;22548;-80
2023/02/22 02:24:21;;;;;;;;;;;;;;;8.07;76.86;98874.80;107797;1292;22994;-81
2023/02/22 02:27:28;;;;;;;;;;;;;;;8.02;76.41;98872.11;106889;1293;25281;-79
2023/02/22 02:30:19;;;;;;;;;;;;;;;7.98;76.42;98873.58;107770;1292;24082;-82
2023/02/22 02:33:14;;;;;;;;;;;;;;;7.94;74.88;98872.80;107416;1292;22547;-82
2023/02/22 02:35:57;;;;;;;;;;;;;;;7.88;75.68;98876.85;107618;1287;23043;-80
2023/02/22 02:38:42;;;;;;;;;;;;;;;7.83;75.67;98880.57;107684;1293;22671;-80
2023/02/22 02:41:38;;;;;;;;;;;;;;;7.78;75.56;98879.98;107379;1293;23241;-82
2023/02/22 02:44:21;;;;;;;;;;;;;;;7.70;75.58;98879.75;107535;1286;24214;-80
2023/02/22 02:47:13;;;;;;;;;;;;;;;7.62;75.12;98877.83;107343;1293;22626;-80
2023/02/22 02:49:58;;;;;;;;;;;;;;;7.54;75.67;98884.85;107444;1276;22613;-80
2023/02/22 02:52:38;;;;;;;;;;;;;;;7.48;77.51;98886.85;107323;1292;24266;-80
2023/02/22 02:55:20;;;;;;;;;;;;;;;7.43;76.96;98887.27;107178;1294;23921;-83
2023/02/22 02:57:59;;;;;;;;;;;;;;;7.37;76.11;98887.19;107588;1290;25261;-80
2023/02/22 03:00:42;;;;;;;;;;;;;;;7.33;76.05;98894.83;107736;1292;26313;-79
2023/02/22 03:03:36;;;;;;;;;;;;;;;7.29;77.05;98902.83;107689;1289;22609;-80
2023/02/22 03:06:23;;;;;;;;;;;;;;;7.27;77.08;98906.64;108040;1287;24148;-80
2023/02/22 03:09:20;;;;;;;;;;;;;;;7.27;76.23;98909.58;107664;1285;22545;-80
2023/02/22 03:12:11;;;;;;;;;;;;;;;7.27;76.00;98906.48;107612;1293;24266;-81
2023/02/22 03:15:29;;;;;;;;;;;;;;;7.26;78.76;98910.27;107484;1293;22564;-80
2023/02/22 03:18:16;;;;;;;;;;;;;;;7.29;78.26;98904.72;108100;1290;22555;-82
2023/02/22 03:21:22;;;;;;;;;;;;;;;7.32;78.51;98920.36;107367;1289;22474;-80
2023/02/22 03:24:32;;;;;;;;;;;;;;;7.33;77.66;98920.86;107540;1281;22498;-79
2023/02/22 03:27:17;;;;;;;;;;;;;;;7.38;77.50;98917.34;107948;1288;22603;-79
2023/02/22 03:30:02;;;;;;;;;;;;;;;7.46;78.38;98917.91;108055;1292;22535;-81
2023/02/22 03:32:44;;;;;;;;;;;;;;;7.53;78.32;98921.26;106958;1294;22676;-80
2023/02/22 03:35:22;;;;;;;;;;;;;;;7.61;78.12;98924.41;107574;1293;24241;-80
2023/02/22 03:38:04;;;;;;;;;;;;;;;;;;;;;
2023/02/22 03:40:55;;;;;;;;;;;;;;;7.74;78.33;98925.40;107587;1293;22672;-80
2023/02/22 03:43:53;;;;;;;;;;;;;;;7.79;78.51;98924.98;107553;1293;22867;-80
2023/02/22 03:46:34;;;;;;;;;;;;;;;7.84;78.67;98923.87;107640;1289;22493;-80
2023/02/22 03:49:47;;;;;;;;;;;;;;;7.86;78.23;98928.66;107526;1293;24920;-80
2023/02/22 03:52:42;;;;;;;;;;;;;;;7.89;77.49;98932.59;107083;1286;22675;-80
2023/02/22 03:55:47;;;;;;;;;;;;;;;7.87;77.38;98928.64;107248;1289;24284;-80
2023/02/22 03:58:37;;;;;;;;;;;;;;;7.85;77.52;98932.80;107021;1290;24820;-81
2023/02/22 04:01:19;;;;;;;;;;;;;;;7.81;78.69;98931.50;107293;1289;22618;-80
2023/02/22 04:04:00;;;;;;;;;;;;;;;7.82;77.07;98934.27;107638;1293;22475;-80
2023/02/22 04:06:32;;;;;;;;;;;;;;;7.77;78.66;98936.23;107379;1289;24233;-83
2023/02/22 04:09:13;;;;;;;;;;;;;;;7.76;78.27;98934.70;107154;1293;22504;-80
2023/02/22 04:11:58;;;;;;;;;;;;;;;7.73;78.03;98934.39;107459;1293;22506;-80
2023/02/22 04:14:37;;;;;;;;;;;;;;;7.72;77.37;98937.34;107118;1292;22563;-80
2023/02/22 04:17:16;;;;;;;;;;;;;;;7.68;78.52;98937.06;107097;1292;22547;-80
2023/02/22 04:19:56;;;;;;;;;;;;;;;7.69;78.62;98944.98;107249;1293;22654;-79
2023/02/22 04:22:45;;;;;;;;;;;;;;;7.69;77.92;98945.33;107352;1292;22508;-79
2023/02/22 04:25:25;;;;;;;;;;;;;;;7.68;77.80;98947.06;107547;1293;22527;-81
2023/02/22 04:28:02;;;;;;;;;;;;;;;7.68;76.91;98949.83;107304;1290;22523;-80
2023/02/22 04:30:43;;;;;;;;;;;;;;;7.65;77.94;98951.08;107374;1293;22544;-79
2023/02/22 04:33:15;;;;;;;;;;;;;;;7.62;78.85;98948.54;107302;1293;22635;-81
2023/02/22 04:35:50;;;;;;;;;;;;;;;7.60;79.29;98950.64;107265;1293;22637;-80
2023/02/22 04:38:23;;;;;;;;;;;;;;;7.60;79.16;98948.58;107298;1293;24563;-80
2023/02/22 04:41:00;;;;;;;;;;;;;;;7.61;78.79;98948.21;107299;1293;22536;-80
2023/02/22 04:43:34;;;;;;;;;;;;;;;7.63;77.98;98953.86;107235;1294;22527;-80
2023/02/22 04:46:24;;;;;;;;;;;;;;;7.66;78.19;98959.35;107265;1292;23939;-80
2023/02/22 04:48:56;;;;;;;;;;;;;;;7.70;78.45;98962.55;107431;1293;22573;-80
2023/02/22 04:51:31;;;;;;;;;;;;;;;7.75;78.23;98965.58;107398;1292;22517;-80
2023/02/22 04:54:08;;;;;;;;;;;;;;;7.78;79.18;98966.75;107249;1289;23231;-80
2023/02/22 04:56:41;;;;;;;;;;;;;;;7.83;79.47;98964.25;107527;1292;22470;-80
2023/02/22 04:59:15;;;;;;;;;;;;;;;7.86;79.02;98968.52;107528;1294;22538;-79
2023/02/22 05:01:47;;;;;;;;;;;;;;;7.87;79.05;98964.02;107541;1293;22563;-80
2023/02/22 05:04:15;;;;;;;;;;;;;;;7.90;79.17;98964.51;107958;1293;23921;-80
2023/02/22 05:06:47;;;;;;;;;;;;;;;7.91;79.51;98962.05;108017;1287;22553;-80
2023/02/22 05:09:20;;;;;;;;;;;;;;;7.92;79.65;98963.77;108216;1289;22547;-81
2023/02/22 05:11:53;;;;;;;;;;;;;;;7.94;79.13;98964.42;108415;1292;22592;-82
2023/02/22 05:14:27;;;;;;;;;;;;;;;7.91;78.91;98967.40;108222;1293;24756;-79
2023/02/22 05:16:59;;;;;;;;;;;;;;;7.89;79.27;98966.39;106852;1293;22557;-79
2023/02/22 05:19:29;;;;;;;;;;;;;;;7.87;79.30;98966.77;106670;1287;22532;-77
2023/02/22 05:22:00;;;;;;;;;;;;;;;7.86;78.60;98962.66;106298;1287;22527;-79
2023/02/22 05:24:34;;;;;;;;;;;;;;;7.79;79.04;98962.93;106248;1292;22534;-79
2023/02/22 05:27:02;;;;;;;;;;;;;;;7.75;79.47;98961.62;105971;1292;22527;-81
2023/02/22 05:29:37;;;;;;;;;;;;;;;7.72;79.55;98963.22;105924;1289;22536;-78
2023/02/22 05:32:05;;;;;;;;;;;;;;;7.69;79.61;98968.27;106071;1293;23080;-78
2023/02/22 05:34:42;;;;;;;;;;;;;;;7.67;80.23;98966.40;106150;1293;23886;-78
2023/02/22 05:37:13;;;;;;;;;;;;;;;7.66;79.29;98968.82;106028;1290;22588;-78
2023/02/22 05:39:46;;;;;;;;;;;;;;;7.65;79.02;98967.80;105996;1292;22532;-79
2023/02/22 05:42:20;;;;;;;;;;;;;;;7.64;78.74;98973.35;106211;1286;25358;-78
2023/02/22 05:44:56;;;;;;;;;;;;;;;7.66;77.77;98978.15;106418;1292;22527;-78
2023/02/22 05:47:25;;;;;;;;;;;;;;;7.64;77.96;98983.00;107316;1293;22925;-79
2023/02/22 05:49:59;;;;;;;;;;;;;;;7.66;78.57;98986.09;107810;1293;23319;-79
2023/02/22 05:52:28;;;;;;;;;;;;;;;7.68;78.92;98986.92;107794;1293;22818;-79
2023/02/22 05:55:04;;;;;;;;;;;;;;;7.70;79.80;98991.02;107239;1293;22639;-79
2023/02/22 05:57:35;;;;;;;;;;;;;;;7.75;79.86;98997.48;106124;1293;22539;-79
2023/02/22 06:00:05;;;;;;;;;;;;;;;7.79;79.80;99000.55;106062;1293;25538;-78
2023/02/22 06:02:44;;;;;;;;;;;;;;;7.80;79.95;99003.30;106236;1293;22562;-78
2023/02/22 06:05:15;;;;;;;;;;;;;;;7.79;80.20;99004.86;106112;1286;24042;-78
2023/02/22 06:07:51;;;;;;;;;;;;;;;7.79;79.80;99008.83;106145;1293;22533;-78
2023/02/22 06:10:24;;;;;;;;;;;;;;;7.78;79.43;99006.95;106209;1293;22527;-79
2023/02/22 06:12:55;;;;;;;;;;;;;;;7.78;79.12;99009.19;106193;1292;22519;-78
2023/02/22 06:15:26;;;;;;;;;;;;;;;7.77;79.19;99008.69;106061;1283;22566;-78
2023/02/22 06:17:55;;;;;;;;;;;;;;;7.76;79.45;99010.60;106043;1290;22550;-79
2023/02/22 06:20:24;;;;;;;;;;;;;;;7.73;79.46;99015.83;106045;1287;23379;-79
2023/02/22 06:22:56;;;;;;;;;;;;;;;7.72;79.34;99018.42;106027;1293;25482;-78
2023/02/22 06:25:33;;;;;;;;;;;;;;;7.73;79.07;99018.92;106115;1293;26506;-79
2023/02/22 06:28:06;;;;;;;;;;;;;;;7.72;79.91;99023.94;106134;1293;22587;-78
2023/02/22 06:30:39;;;;;;;;;;;;;;;7.75;79.22;99029.42;105873;1293;22566;-79
2023/02/22 06:33:11;;;;;;;;;;;;;;;7.77;79.14;99034.40;106130;1293;26636;-79
2023/02/22 06:35:42;;;;;;;;;;;;;;;7.77;78.52;99033.37;106051;1293;24217;-83
2023/02/22 06:38:21;;;;;;;;;;;;;;;7.77;78.12;99041.13;106091;1293;22479;-78
2023/02/22 06:40:54;;;;;;;;;;;;;;;7.76;79.72;99037.86;106326;1293;22671;-81
2023/02/22 06:43:29;;;;;;;;;;;;;;;7.79;80.46;99037.48;106299;1293;22556;-79
2023/02/22 06:46:00;;;;;;;;;;;;;;;7.83;80.28;99032.23;106337;1292;22632;-79
2023/02/22 06:48:33;;;;;;;;;;;;;;;7.90;78.89;99032.64;106353;1293;25510;-80
2023/02/22 06:51:07;;;;;;;;;;;;;;;7.97;78.53;99038.05;106122;1293;22656;-78
2023/02/22 06:53:48;;;;;;;;;;;;;;;8.05;78.79;99035.02;106233;1293;22503;-78
2023/02/22 06:56:22;;;;;;;;;;;;;;;8.14;79.06;99039.00;106439;1287;22602;-81
2023/02/22 06:58:50;;;;;;;;;;;;;;;8.23;79.18;99042.16;106343;1283;23935;-82
2023/02/22 07:01:20;;;;;;;;;;;;;;;8.30;79.54;99041.17;106258;1287;23393;-79
2023/02/22 07:03:57;;;;;;;;;;;;;;;8.40;79.48;99042.23;106355;1293;24447;-81
2023/02/22 07:06:36;;;;;;;;;;;;;;;8.50;79.29;99042.08;106276;1293;25480;-79
2023/02/22 07:09:35;;;;;;;;;;;;;;;8.55;79.00;99040.25;107083;1270;25392;-84
2023/02/22 07:12:21;;;;;;;;;;;;;;;8.59;78.74;99036.70;106675;1290;22522;-80
2023/02/22 07:14:56;;;;;;;;;;;;;;;8.64;78.74;99039.39;106755;1289;22477;-83
2023/02/22 07:17:46;;;;;;;;;;;;;;;8.69;78.41;99038.26;108066;1267;25290;-79
2023/02/22 07:20:30;;;;;;;;;;;;;;;8.74;78.23;99041.29;107191;1286;22591;-84
2023/02/22 07:23:23;;;;;;;;;;;;;;;8.78;78.11;99040.70;108299;1282;22484;-79
2023/02/22 07:26:02;;;;;;;;;;;;;;;8.84;77.96;99040.07;107444;1283;22511;-78
2023/02/22 07:28:40;;;;;;;;;;;;;;;8.86;77.79;99039.16;106549;1293;25210;-78
2023/02/22 07:31:09;;;;;;;;;;;;;;;8.89;77.72;99037.89;109125;1270;22535;-80
2023/02/22 07:33:43;;;;;;;;;;;;;;;8.94;77.79;99039.20;106922;1290;24470;-78
2023/02/22 07:36:22;;;;;;;;;;;;;;;9.03;77.54;99039.54;106915;1285;22467;-79
2023/02/22 07:39:02;;;;;;;;;;;;;;;9.12;77.38;99039.52;107045;1292;25296;-79
2023/02/22 07:41:39;;;;;;;;;;;;;;;9.21;77.31;99039.35;107186;1292;22515;-79
2023/02/22 07:44:44;;;;;;;;;;;;;;;9.29;77.02;99036.40;107041;1286;25386;-79
2023/02/22 07:47:46;;;;;;;;;;;;;;;;;;;;;
2023/02/22 07:50:31;;;;;;;;;;;;;;;9.43;76.72;99044.76;107703;1286;22635;-80
2023/02/22 07:53:23;;;;;;;;;;;;;;;9.49;76.94;99049.65;106684;1292;22572;-80
2023/02/22 07:56:10;;;;;;;;;;;;;;;9.59;76.96;99047.02;106736;1292;23946;-80
2023/02/22 07:59:00;;;;;;;;;;;;;;;9.68;76.78;99046.82;106896;1293;22468;-79
2023/02/22 08:01:50;;;;;;;;;;;;;;;9.74;76.92;99043.91;106662;1290;22520;-79
2023/02/22 08:04:26;;;;;;;;;;;;;;;9.86;76.74;99045.38;106665;1286;22600;-79
2023/02/22 08:06:57;;;;;;;;;;;;;;;9.94;76.65;99046.06;106785;1290;22569;-78
2023/02/22 08:09:31;;;;;;;;;;;;;;;10.07;76.51;99049.73;106860;1289;22695;-79
2023/02/22 08:12:06;;;;;;;;;;;;;;;10.20;75.65;99055.14;106905;1292;24523;-79
2023/02/22 08:14:34;;;;;;;;;;;;;;;10.25;75.36;99058.31;107036;1292;22648;-79
2023/02/22 08:17:08;;;;;;;;;;;;;;;10.34;75.09;99065.91;106861;1286;22519;-80
2023/02/22 08:19:42;;;;;;;;;;;;;;;10.39;74.67;99064.06;107030;1290;22564;-79
2023/02/22 08:22:10;;;;;;;;;;;;;;;10.43;74.40;99065.87;107253;1289;22582;-84
2023/02/22 08:24:39;;;;;;;;;;;;;;;10.48;74.45;99069.73;107029;1289;23066;-81
2023/02/22 08:27:10;;;;;;;;;;;;;;;10.51;74.26;99068.60;107038;1289;22549;-79
2023/02/22 08:29:44;;;;;;;;;;;;;;;10.57;74.08;99071.26;106648;1286;22529;-79
2023/02/22 08:32:12;;;;;;;;;;;;;;;10.56;73.57;99071.27;106981;1286;22967;-79
2023/02/22 08:34:41;;;;;;;;;;;;;;;10.65;73.49;99061.50;106838;1289;22662;-78
2023/02/22 08:37:15;;;;;;;;;;;;;;;10.75;73.48;99068.70;107455;1286;22559;-79
2023/02/22 08:39:49;;;;;;;;;;;;;;;10.83;72.89;99063.29;108323;1284;22578;-79
2023/02/22 08:42:22;;;;;;;;;;;;;;;10.86;72.72;99063.56;107449;1292;22658;-79
2023/02/22 08:44:51;;;;;;;;;;;;;;;10.91;72.50;99065.15;107251;1292;24230;-78
2023/02/22 08:47:19;;;;;;;;;;;;;;;10.97;72.41;99067.42;106845;1286;24243;-79
2023/02/22 08:49:48;;;;;;;;;;;;;;;11.04;72.50;99064.80;107089;1289;23960;-80
2023/02/22 08:52:24;;;;;;;;;;;;;;;11.10;71.89;99066.55;106863;1286;22575;-79
2023/02/22 08:54:55;;;;;;;;;;;;;;;11.13;72.11;99066.46;106956;1289;22570;-81
2023/02/22 08:57:30;;;;;;;;;;;;;;;11.18;71.95;99064.08;106927;1286;22624;-80
2023/02/22 08:59:59;;;;;;;;;;;;;;;11.24;71.58;99068.57;107242;1292;24007;-80
2023/02/22 09:02:33;;;;;;;;;;;;;;;11.34;71.78;99068.66;107178;1292;23482;-79
2023/02/22 09:05:10;;;;;;;;;;;;;;;11.38;71.67;99066.63;106739;1286;23053;-80
2023/02/22 09:07:44;;;;;;;;;;;;;;;11.47;71.56;99066.55;106918;1286;22656;-81
2023/02/22 09:10:20;;;;;;;;;;;;;;;11.54;71.13;99063.05;106461;1290;23682;-79
2023/02/22 09:12:54;;;;;;;;;;;;;;;11.61;71.69;99061.45;107091;1292;22581;-79
2023/02/22 09:15:25;;;;;;;;;;;;;;;11.66;71.28;99060.77;106611;1291;22531;-81
2023/02/22 09:17:54;;;;;;;;;;;;;;;11.73;71.01;99061.27;106564;1292;23244;-81
2023/02/22 09:20:33;;;;;;;;;;;;;;;11.82;70.68;99062.23;106829;1283;22945;-79
2023/02/22 09:23:05;;;;;;;;;;;;;;;11.83;69.99;99060.42;107364;1286;25250;-80
2023/02/22 09:25:38;;;;;;;;;;;;;;;11.89;70.12;99057.66;107226;1292;22574;-80
2023/02/22 09:28:12;;;;;;;;;;;;;;;11.98;69.67;99055.30;107265;1285;22485;-78
2023/02/22 09:30:42;;;;;;;;;;;;;;;12.01;68.58;99059.04;106481;1292;22521;-79
2023/02/22 09:33:15;;;;;;;;;;;;;;;12.11;69.03;99058.70;106536;1290;25244;-79
2023/02/22 09:35:51;;;;;;;;;;;;;;;12.18;68.85;99055.73;108280;1292;22533;-81
2023/02/22 09:38:28;;;;;;;;;;;;;;;12.24;68.72;99057.79;108467;1292;22552;-80
2023/02/22 09:41:38;;;;;;;;;;;;;;;12.21;67.96;99051.11;108375;1289;22570;-81
2023/02/22 09:44:23;;;;;;;;;;;;;;;12.27;68.58;99054.05;107739;1293;22484;-81
2023/02/22 09:46:55;;;;;;;;;;;;;;;12.27;67.55;99051.24;107782;1292;22590;-82
2023/02/22 09:49:35;;;;;;;;;;;;;;;12.33;68.67;99053.33;108273;1293;22702;-81
2023/02/22 09:52:13;;;;;;;;;;;;;;;12.37;67.98;99053.88;108190;1291;23423;-80
2023/02/22 09:55:35;;;;;;;;;;;;;;;12.41;67.81;99053.92;108317;1293;22561;-80
2023/02/22 09:59:03;;;;;;;;;;;;;;;12.45;66.92;99052.58;109154;1285;22542;-82
2023/02/22 10:02:23;;;;;;;;;;;;;;;12.52;66.93;99047.65;109039;1288;22552;-82
2023/02/22 10:05:14;;;;;;;;;;;;;;;12.66;66.76;99038.83;108463;1280;22569;-81
2023/02/22 10:07:46;;;;;;;;;;;;;;;12.77;65.74;99039.14;108154;1286;23568;-80
2023/02/22 10:10:31;;;;;;;;;;;;;;;12.81;64.01;99036.39;108797;1292;22580;-82
2023/02/22 10:17:06;;;;;;;;;;;;;;;12.83;64.20;99032.48;108158;1292;24095;-80
2023/02/22 10:20:04;;;;;;;;;;;;;;;12.82;63.96;99030.61;107872;1293;22554;-82
2023/02/22 10:22:49;;;;;;;;;;;;;;;12.83;64.91;99027.45;108679;1286;22646;-82
2023/02/22 10:25:46;;;;;;;;;;;;;;;12.82;64.51;99027.86;108143;1287;25527;-82
2023/02/22 10:28:23;;;;;;;;;;;;;;;12.80;63.51;99025.82;107946;1286;25409;-81
2023/02/22 10:31:19;;;;;;;;;;;;;;;12.82;64.52;99018.11;107740;1293;25315;-81
2023/02/22 10:33:54;;;;;;;;;;;;;;;12.85;64.29;99018.34;107842;1294;22519;-81
2023/02/22 10:36:31;;;;;;;;;;;;;;;12.91;64.37;99016.20;107910;1292;23287;-81
2023/02/22 10:39:21;;;;;;;;;;;;;;;12.97;63.74;99016.33;107961;1293;22464;-81
2023/02/22 10:42:04;;;;;;;;;;;;;;;12.91;63.31;99008.89;107675;1292;25280;-81
2023/02/22 10:44:42;;;;;;;;;;;;;;;12.95;64.38;99008.40;108103;1286;22523;-81
2023/02/22 10:47:17;;;;;;;;;;;;;;;13.01;64.20;99003.36;107829;1292;22622;-81
2023/02/22 10:50:04;;;;;;;;;;;;;;;13.02;63.07;99001.58;107690;1289;25441;-81
2023/02/22 10:52:42;;;;;;;;;;;;;;;13.03;63.71;98998.74;107574;1294;22564;-80
2023/02/22 10:55:15;;;;;;;;;;;;;;;13.05;63.18;98995.18;107833;1293;22492;-81
2023/02/22 10:57:49;;;;;;;;;;;;;;;13.07;63.33;98992.48;107963;1290;22489;-81
2023/02/22 11:00:25;;;;;;;;;;;;;;;13.09;62.61;98991.70;108895;1294;22535;-81
2023/02/22 11:03:01;;;;;;;;;;;;;;;13.14;62.39;98985.09;109146;1289;22639;-82
2023/02/22 11:05:37;;;;;;;;;;;;;;;13.23;62.32;98983.55;109169;1294;22622;-81
2023/02/22 11:08:38;;;;;;;;;;;;;;;13.32;61.59;98978.52;108739;1293;22534;-81
2023/02/22 11:11:24;;;;;;;;;;;;;;;13.57;60.93;98977.58;108049;1286;22535;-81
2023/02/22 11:13:58;;;;;;;;;;;;;;;13.77;59.78;98977.83;107734;1293;22482;-82
2023/02/22 11:16:36;;;;;;;;;;;;;;;13.92;59.53;98979.30;107903;1293;22543;-81
2023/02/22 11:19:38;;;;;;;;;;;;;;;14.00;58.35;98975.36;107749;1289;22549;-80
2023/02/22 11:22:36;;;;;;;;;;;;;;;14.07;58.52;98970.38;108083;1289;23798;-81
2023/02/22 11:25:20;;;;;;;;;;;;;;;14.18;56.92;98973.55;107955;1293;24275;-81
2023/02/22 11:27:55;;;;;;;;;;;;;;;14.35;57.01;98966.72;107695;1293;22924;-83
2023/02/22 11:59:48;;;;;;;9.00;4.30;;;;;;;15.44;52.57;98959.84;104414;1286;558372;-75
2023/02/22 12:02:44;;;;;;;7.30;4.00;;;;;;;15.36;52.72;98957.20;106124;1288;333289;-77
2023/02/22 12:05:58;;;;;;;8.10;4.20;;;;;;;15.20;53.03;98952.88;106502;1282;22625;-77
2023/02/22 12:08:42;;;;;;;11.70;4.90;;;;;;;15.02;53.09;98952.52;106402;1289;22559;-76
2023/02/22 12:11:11;;;;;;;13.20;5.40;;;;;;;15.01;53.94;98952.38;106554;1285;24241;-78
2023/02/22 12:14:11;;;;;;;12.80;5.80;;;;;;;15.01;54.52;98953.94;106537;1288;22666;-79
2023/02/22 12:16:50;;;;;;;11.50;5.00;;;;;;;14.85;53.39;98950.98;107048;1281;23887;-79
2023/02/22 12:19:38;;;;;;;13.60;5.70;;;;;;;14.82;53.88;98948.48;107099;1278;22753;-79
2023/02/22 12:22:20;;;;;;;8.20;4.50;;;;;;;14.85;53.84;98943.50;107047;1281;23661;-78
2023/02/22 12:24:59;;;;;;;10.60;4.30;;;;;;;14.89;53.96;98948.55;107146;1275;22531;-78
2023/02/22 12:27:51;;;;;;;7.40;4.60;;;;;;;14.79;53.81;98945.14;107315;1273;22564;-75
2023/02/22 12:30:30;;;;;;;13.20;5.00;;;;;;;14.82;53.76;98938.19;107253;1263;26733;-75
2023/02/22 12:33:03;;;;;;;8.10;4.30;;;;;;;14.87;53.32;98935.55;107358;1277;23285;-77
2023/02/22 12:35:37;;;;;;;9.00;4.60;;;;;;;14.83;53.24;98931.71;107337;1278;22552;-79
2023/02/22 12:38:15;;;;;;;10.20;4.30;;;;;;;14.86;53.80;98939.08;107347;1270;22792;-79
2023/02/22 12:40:58;;;;;;;11.10;4.70;;;;;;;14.82;53.50;98933.67;107319;1275;22604;-79
2023/02/22 12:43:40;;;;;;;12.30;5.50;;;;;;;14.77;53.98;98937.92;107240;1278;22521;-79
2023/02/22 12:46:19;;;;;;;8.20;4.50;;;;;;;14.75;53.97;98932.96;107511;1275;22523;-77
2023/02/22 12:49:04;;;;;;;8.60;4.60;;;;;;;14.72;53.75;98935.17;107312;1269;23898;-77
2023/02/22 12:51:50;;;;;;;11.50;5.60;;;;;;;14.77;54.68;98925.52;107115;1278;22763;-80
2023/02/22 12:54:59;;;;;;;9.40;4.20;;;;;;;14.74;53.57;98926.52;107058;1271;24017;-79
2023/02/22 12:57:49;;;;;;;9.80;4.60;;;;;;;14.66;54.05;98926.70;107069;1279;22937;-78
2023/02/22 13:00:25;;;;;;;9.20;3.80;;;;;;;14.54;53.39;98925.13;106979;1273;22570;-76
2023/02/22 13:03:08;;;;;;;7.60;4.00;;;;;;;14.47;53.42;98933.45;106992;1279;22646;-77
2023/02/22 13:05:39;;;;;;;8.80;4.40;;;;;;;14.39;53.89;98937.11;106881;1272;23025;-78
2023/02/22 13:08:32;;;;;;;13.50;5.30;;;;;;;14.31;54.11;98940.58;106902;1279;24341;-78
2023/02/22 13:11:06;;;;;;;10.60;5.10;;;;;;;14.23;54.07;98938.83;106934;1273;25277;-76
2023/02/22 13:14:12;;;;;;;10.60;4.30;;;;;;;14.15;53.72;98940.72;107163;1280;22528;-76
2023/02/22 13:16:54;;;;;;;8.80;4.50;;;;;;;14.07;54.00;98942.83;107020;1279;23385;-77
2023/02/22 13:19:39;;;;;;;8.90;4.80;;;;;;;14.00;54.00;98945.89;107023;1277;22556;-77
2023/02/22 13:22:25;;;;;;;12.20;5.40;;;;;;;13.94;54.10;98938.13;106870;1278;23766;-78
2023/02/22 13:25:07;;;;;;;8.90;4.70;;;;;;;13.85;53.90;98942.14;106987;1278;22631;-77
2023/02/22 13:27:46;;;;;;;12.40;6.00;;;;;;;13.83;54.28;98938.41;106986;1278;25329;-77
2023/02/22 13:30:24;;;;;;;11.70;4.80;;;;;;;13.79;54.44;98939.45;107055;1279;22563;-78
2023/02/22 13:33:13;;;;;;;10.90;5.00;;;;;;;13.72;54.43;98940.77;107109;1275;25325;-79
2023/02/22 13:35:54;;;;;;;11.00;4.90;;;;;;;13.61;54.34;98941.20;107136;1279;22572;-79
2023/02/22 13:38:48;;;;;;;9.40;5.10;;;;;;;13.59;54.94;98940.95;107115;1272;23144;-79
2023/02/22 13:41:21;;;;;;;9.60;4.90;;;;;;;13.47;55.06;98941.05;107174;1279;25223;-79
2023/02/22 13:44:06;;;;;;;12.10;4.90;;;;;;;13.42;55.28;98937.77;107125;1272;25322;-78
2023/02/22 13:47:03;;;;;;;10.40;4.80;;;;;;;13.43;55.47;98936.86;107119;1273;22575;-78
2023/02/22 13:49:50;;;;;;;9.00;4.30;;;;;;;13.47;55.36;98942.46;107149;1279;25517;-78
2023/02/22 13:52:25;;;;;;;12.80;5.60;;;;;;;13.51;55.47;98940.20;107096;1279;22795;-80
2023/02/22 13:55:16;;;;;;;11.00;5.80;;;;;;;13.54;55.32;98936.24;107063;1278;26739;-78
2023/02/22 13:57:50;;;;;;;13.30;6.50;;;;;;;13.51;55.60;98938.63;107101;1279;22646;-78
2023/02/22 14:00:39;;;;;;;16.40;6.20;;;;;;;13.48;55.50;98939.81;107038;1272;22517;-78
2023/02/22 14:03:34;;;;;;;14.50;6.70;;;;;;;13.49;55.84;98943.40;106990;1279;22500;-79
2023/02/22 14:06:05;;;;;;;17.30;8.10;;;;;;;13.53;55.73;98941.84;107093;1279;22607;-79
2023/02/22 14:08:33;;;;;;;18.00;7.50;;;;;;;13.55;55.83;98939.88;107148;1279;22563;-80
2023/02/22 14:11:05;;;;;;;11.70;5.90;;;;;;;13.57;55.82;98937.69;107111;1273;22480;-78